Time;durP1;ratioP1;P1;durP2;ratioP2;P2;SDS_P1;SDS_P2;PMS_P1;PMS_P2;Temp;Humidity;BMP_temperature;BMP_pressure;BME280_temperature;BME280_humidity;BME280_pressure;Samples;Min_cycle;Max_cycle;Signal;HPM_P1;HPM_P2
2022/02/21 00:00:14;;;;;;;10.52;2.90;;;;;;;;;;5056901;28;20036;-50
2022/02/21 00:02:42;;;;;;;13.15;4.18;;;;;;;;;;5063761;28;20029;-50
2022/02/21 00:05:09;;;;;;;11.43;3.53;;;;;;;;;;5057839;28;20024;-47
2022/02/21 00:07:35;;;;;;;10.38;3.53;;;;;;;;;;5063219;28;20016;-50
2022/02/21 00:10:01;;;;;;;9.52;2.85;;;;;;;;;;5059036;28;20048;-51
2022/02/21 00:12:27;;;;;;;13.43;3.50;;;;;;;;;;5062403;28;20024;-50
2022/02/21 00:14:53;;;;;;;8.88;3.10;;;;;;;;;;5069631;28;20119;-51
2022/02/21 00:17:20;;;;;;;9.02;2.97;;;;;;;;;;5065652;28;20547;-50
2022/02/21 00:19:46;;;;;;;8.23;2.80;;;;;;;;;;5063294;28;20112;-48
2022/02/21 00:22:12;;;;;;;5.65;2.33;;;;;;;;;;5068895;28;20035;-50
2022/02/21 00:24:38;;;;;;;9.32;2.97;;;;;;;;;;5068865;28;20099;-50
2022/02/21 00:27:04;;;;;;;9.15;3.38;;;;;;;;;;5067451;28;20570;-49
2022/02/21 00:29:31;;;;;;;11.48;2.85;;;;;;;;;;5067815;28;20115;-54
2022/02/21 00:31:57;;;;;;;8.77;2.97;;;;;;;;;;5066771;28;20482;-50
2022/02/21 00:34:23;;;;;;;12.00;3.25;;;;;;;;;;5057600;28;20413;-49
2022/02/21 00:36:49;;;;;;;11.63;3.55;;;;;;;;;;5067604;28;20032;-50
2022/02/21 00:39:16;;;;;;;9.52;3.15;;;;;;;;;;5068063;28;20746;-52
2022/02/21 00:41:42;;;;;;;11.02;4.43;;;;;;;;;;5067578;28;20033;-51
2022/02/21 00:44:08;;;;;;;7.22;3.25;;;;;;;;;;5068206;28;20074;-47
2022/02/21 00:46:34;;;;;;;11.80;3.92;;;;;;;;;;5068615;28;20040;-52
2022/02/21 00:49:01;;;;;;;10.25;2.85;;;;;;;;;;5067460;28;20024;-50
2022/02/21 00:51:27;;;;;;;8.60;3.38;;;;;;;;;;5068579;28;20483;-54
2022/02/21 00:53:54;;;;;;;9.23;2.72;;;;;;;;;;5068876;28;20104;-50
2022/02/21 00:56:20;;;;;;;11.52;3.42;;;;;;;;;;5068403;28;20581;-51
2022/02/21 00:58:46;;;;;;;14.20;3.85;;;;;;;;;;5068531;28;20533;-50
2022/02/21 01:01:12;;;;;;;11.02;3.50;;;;;;;;;;5058917;28;20036;-50
2022/02/21 01:03:38;;;;;;;11.48;3.38;;;;;;;;;;5058521;28;20504;-51
2022/02/21 01:06:05;;;;;;;7.70;2.60;;;;;;;;;;5068357;28;20032;-46
2022/02/21 01:08:31;;;;;;;7.43;2.78;;;;;;;;;;5063604;28;20094;-48
2022/02/21 01:10:57;;;;;;;9.52;3.25;;;;;;;;;;5068026;28;20033;-52
2022/02/21 01:13:23;;;;;;;9.15;2.38;;;;;;;;;;5067763;28;20527;-48
2022/02/21 01:15:49;;;;;;;9.20;2.67;;;;;;;;;;5068499;28;20037;-47
2022/02/21 01:18:15;;;;;;;11.85;2.97;;;;;;;;;;5067516;28;20066;-47
2022/02/21 01:20:41;;;;;;;7.13;2.88;;;;;;;;;;5068099;28;20179;-47
2022/02/21 01:23:07;;;;;;;13.13;3.53;;;;;;;;;;5067920;28;20028;-49
2022/02/21 01:25:33;;;;;;;12.52;3.40;;;;;;;;;;5068216;28;20024;-50
2022/02/21 01:27:59;;;;;;;7.32;2.72;;;;;;;;;;5068450;28;20107;-49
2022/02/21 01:30:25;;;;;;;9.68;2.78;;;;;;;;;;5063642;28;20108;-50
2022/02/21 01:32:51;;;;;;;7.85;2.78;;;;;;;;;;5068534;28;20119;-50
2022/02/21 01:35:18;;;;;;;10.52;3.25;;;;;;;;;;5067843;28;20143;-51
2022/02/21 01:37:43;;;;;;;7.47;2.40;;;;;;;;;;5068141;28;20561;-48
2022/02/21 01:40:10;;;;;;;9.60;2.75;;;;;;;;;;5067543;28;20028;-49
2022/02/21 01:42:36;;;;;;;9.45;3.00;;;;;;;;;;5068258;28;20021;-51
2022/02/21 01:45:03;;;;;;;9.55;3.35;;;;;;;;;;5067670;28;20028;-51
2022/02/21 01:47:29;;;;;;;8.43;2.70;;;;;;;;;;5068128;28;20183;-49
2022/02/21 01:49:55;;;;;;;10.63;2.78;;;;;;;;;;5068166;28;20541;-47
2022/02/21 01:52:21;;;;;;;6.60;2.47;;;;;;;;;;5068438;28;20064;-54
2022/02/21 01:54:50;;;;;;;8.30;2.13;;;;;;;;;;5067527;28;20025;-53
2022/02/21 01:57:16;;;;;;;5.50;1.90;;;;;;;;;;5067861;28;20029;-50
2022/02/21 01:59:42;;;;;;;6.88;2.58;;;;;;;;;;5066214;28;20033;-50
2022/02/21 02:02:08;;;;;;;7.63;2.85;;;;;;;;;;5067822;28;20108;-49
2022/02/21 02:04:35;;;;;;;7.38;2.88;;;;;;;;;;5068132;28;20477;-54
2022/02/21 02:07:01;;;;;;;8.52;2.67;;;;;;;;;;5067125;28;20020;-50
2022/02/21 02:09:28;;;;;;;7.30;2.40;;;;;;;;;;5067809;28;20119;-52
2022/02/21 02:11:54;;;;;;;8.93;2.88;;;;;;;;;;5068008;28;20024;-50
2022/02/21 02:14:30;;;;;;;8.82;2.65;;;;;;;;;;5066883;28;20830;-52
2022/02/21 02:16:56;;;;;;;5.95;2.65;;;;;;;;;;5064017;28;20032;-51
2022/02/21 02:19:22;;;;;;;7.53;2.50;;;;;;;;;;5067720;28;20041;-50
2022/02/21 02:21:54;;;;;;;7.85;2.30;;;;;;;;;;5067819;28;20051;-52
2022/02/21 02:24:20;;;;;;;8.38;2.65;;;;;;;;;;5067535;28;20029;-50
2022/02/21 02:26:46;;;;;;;8.60;2.85;;;;;;;;;;5067848;28;20100;-50
2022/02/21 02:29:12;;;;;;;8.90;2.15;;;;;;;;;;5067409;28;20032;-52
2022/02/21 02:31:38;;;;;;;5.88;2.10;;;;;;;;;;5061331;28;20460;-53
2022/02/21 02:34:04;;;;;;;7.55;2.35;;;;;;;;;;5065015;28;20036;-49
2022/02/21 02:36:30;;;;;;;6.60;2.55;;;;;;;;;;5054933;28;20040;-50
2022/02/21 02:38:56;;;;;;;6.43;2.47;;;;;;;;;;5067497;28;20124;-48
2022/02/21 02:41:22;;;;;;;5.57;1.83;;;;;;;;;;5067307;28;20533;-50
2022/02/21 02:43:48;;;;;;;8.30;2.75;;;;;;;;;;5070446;28;20193;-51
2022/02/21 02:46:14;;;;;;;13.00;3.05;;;;;;;;;;5070751;28;20555;-48
2022/02/21 02:48:40;;;;;;;5.72;2.10;;;;;;;;;;5070373;28;20032;-51
2022/02/21 02:51:06;;;;;;;5.85;2.03;;;;;;;;;;5071228;28;20708;-49
2022/02/21 02:53:32;;;;;;;5.28;2.05;;;;;;;;;;5070956;28;20029;-50
2022/02/21 02:55:58;;;;;;;8.13;2.72;;;;;;;;;;5071563;28;20115;-51
2022/02/21 02:58:24;;;;;;;5.05;2.03;;;;;;;;;;5070069;28;20047;-50
2022/02/21 03:00:51;;;;;;;7.45;2.58;;;;;;;;;;5070494;28;20032;-48
2022/02/21 03:03:17;;;;;;;8.15;2.13;;;;;;;;;;5070923;28;20434;-53
2022/02/21 03:05:43;;;;;;;5.72;1.98;;;;;;;;;;5070966;28;20078;-49
2022/02/21 03:08:10;;;;;;;13.25;3.17;;;;;;;;;;5070506;28;20116;-49
2022/02/21 03:10:36;;;;;;;6.53;2.10;;;;;;;;;;5071007;28;20174;-52
2022/02/21 03:13:02;;;;;;;3.85;1.75;;;;;;;;;;5070494;28;20108;-49
2022/02/21 03:15:28;;;;;;;5.97;2.00;;;;;;;;;;5070130;28;20707;-49
2022/02/21 03:17:54;;;;;;;6.05;2.10;;;;;;;;;;5070454;28;20130;-48
2022/02/21 03:20:20;;;;;;;5.93;2.30;;;;;;;;;;5070601;28;20059;-50
2022/02/21 03:22:46;;;;;;;6.50;2.20;;;;;;;;;;5070405;28;20032;-51
2022/02/21 03:25:13;;;;;;;6.32;2.13;;;;;;;;;;5070521;28;20029;-49
2022/02/21 03:27:44;;;;;;;8.05;2.42;;;;;;;;;;5070705;28;20051;-49
2022/02/21 03:30:10;;;;;;;;;;;;;;;;;;5066271;28;20024;-48
2022/02/21 03:32:37;;;;;;;10.23;2.22;;;;;;;;;;5051537;28;19965;-46
2022/02/21 03:35:04;;;;;;;6.63;2.25;;;;;;;;;;5069947;28;20076;-47
2022/02/21 03:37:30;;;;;;;6.07;1.98;;;;;;;;;;5070054;28;20094;-47
2022/02/21 03:39:56;;;;;;;5.18;2.50;;;;;;;;;;5070367;28;20115;-48
2022/02/21 03:42:22;;;;;;;7.55;2.60;;;;;;;;;;5070134;28;20497;-47
2022/02/21 03:44:48;;;;;;;7.93;2.50;;;;;;;;;;5067492;28;20147;-50
2022/02/21 03:47:14;;;;;;;6.50;1.92;;;;;;;;;;5069668;28;20021;-52
2022/02/21 03:49:40;;;;;;;6.88;2.10;;;;;;;;;;5069613;28;20116;-51
2022/02/21 03:52:07;;;;;;;7.60;2.25;;;;;;;;;;5070366;28;20127;-52
2022/02/21 03:54:34;;;;;;;8.45;2.83;;;;;;;;;;5069935;28;20031;-53
2022/02/21 03:57:00;;;;;;;6.65;1.77;;;;;;;;;;5069877;28;20039;-52
2022/02/21 03:59:26;;;;;;;6.28;2.05;;;;;;;;;;5069242;28;20035;-51
2022/02/21 04:01:52;;;;;;;8.90;2.35;;;;;;;;;;5069456;28;20361;-50
2022/02/21 04:04:18;;;;;;;7.00;2.55;;;;;;;;;;5069422;28;20021;-50
2022/02/21 04:06:44;;;;;;;6.55;2.13;;;;;;;;;;5062343;28;20108;-52
2022/02/21 04:09:10;;;;;;;5.68;2.03;;;;;;;;;;5053453;28;20115;-51
2022/02/21 04:11:36;;;;;;;6.10;2.10;;;;;;;;;;5069681;28;20110;-52
2022/02/21 04:14:02;;;;;;;5.32;1.58;;;;;;;;;;5068715;28;20071;-51
2022/02/21 04:16:32;;;;;;;6.00;2.33;;;;;;;;;;5069184;28;20028;-50
2022/02/21 04:18:58;;;;;;;7.50;1.85;;;;;;;;;;5068812;28;20037;-48
2022/02/21 04:21:24;;;;;;;7.32;1.83;;;;;;;;;;5068943;28;20029;-48
2022/02/21 04:23:50;;;;;;;5.82;1.65;;;;;;;;;;5070000;28;20577;-47
2022/02/21 04:26:19;;;;;;;6.53;1.92;;;;;;;;;;5068944;28;20048;-48
2022/02/21 04:28:45;;;;;;;7.25;2.55;;;;;;;;;;5064177;28;20025;-52
2022/02/21 04:31:14;;;;;;;8.20;2.13;;;;;;;;;;5063474;28;20028;-51
2022/02/21 04:33:40;;;;;;;4.60;1.45;;;;;;;;;;5069461;28;20032;-52
2022/02/21 04:36:06;;;;;;;5.35;1.58;;;;;;;;;;5068624;28;20575;-52
2022/02/21 04:38:32;;;;;;;6.68;2.50;;;;;;;;;;5068890;28;20103;-50
2022/02/21 04:40:58;;;;;;;9.63;2.67;;;;;;;;;;5069327;28;20029;-47
2022/02/21 04:43:26;;;;;;;8.20;1.80;;;;;;;;;;5068581;28;20042;-51
2022/02/21 04:45:55;;;;;;;8.20;2.38;;;;;;;;;;5067776;28;20494;-48
2022/02/21 04:48:21;;;;;;;6.60;2.10;;;;;;;;;;5068680;28;20032;-49
2022/02/21 04:50:47;;;;;;;5.18;1.52;;;;;;;;;;5068716;28;20159;-53
2022/02/21 04:53:13;;;;;;;7.35;1.92;;;;;;;;;;5068649;28;20055;-51
2022/02/21 04:55:40;;;;;;;7.10;1.80;;;;;;;;;;5068783;28;20052;-49
2022/02/21 04:58:06;;;;;;;7.25;2.10;;;;;;;;;;5068720;28;20116;-52
2022/02/21 05:00:32;;;;;;;8.30;2.63;;;;;;;;;;5067350;28;20497;-49
2022/02/21 05:02:58;;;;;;;6.75;1.70;;;;;;;;;;5068735;28;20095;-48
2022/02/21 05:05:25;;;;;;;5.70;1.73;;;;;;;;;;5067857;28;20028;-50
2022/02/21 05:07:51;;;;;;;6.68;2.13;;;;;;;;;;5067880;28;20166;-49
2022/02/21 05:10:17;;;;;;;6.60;1.73;;;;;;;;;;5068538;28;20046;-51
2022/02/21 05:12:43;;;;;;;8.40;2.30;;;;;;;;;;5067736;28;20031;-52
2022/02/21 05:15:10;;;;;;;11.65;2.15;;;;;;;;;;5054543;28;20128;-52
2022/02/21 05:17:36;;;;;;;12.00;2.33;;;;;;;;;;5054918;28;20112;-50
2022/02/21 05:20:02;;;;;;;8.18;2.22;;;;;;;;;;5059022;28;20635;-48
2022/02/21 05:22:29;;;;;;;10.00;2.13;;;;;;;;;;5062397;28;20031;-51
2022/02/21 05:24:55;;;;;;;6.63;1.77;;;;;;;;;;5063508;28;20107;-49
2022/02/21 05:27:21;;;;;;;6.63;1.50;;;;;;;;;;5061239;28;20198;-50
2022/02/21 05:29:47;;;;;;;8.43;1.70;;;;;;;;;;5055722;28;20505;-52
2022/02/21 05:32:13;;;;;;;7.57;2.13;;;;;;;;;;5062208;28;20020;-54
2022/02/21 05:34:39;;;;;;;7.15;1.65;;;;;;;;;;5067778;28;20052;-51
2022/02/21 05:37:05;;;;;;;9.40;2.75;;;;;;;;;;5067771;28;20021;-51
2022/02/21 05:39:33;;;;;;;7.43;1.65;;;;;;;;;;5068457;28;20030;-48
2022/02/21 05:41:59;;;;;;;12.93;2.47;;;;;;;;;;5068183;28;20893;-51
2022/02/21 05:44:25;;;;;;;7.78;1.77;;;;;;;;;;5062966;28;20059;-50
2022/02/21 05:46:52;;;;;;;7.05;1.83;;;;;;;;;;5063455;28;20079;-49
2022/02/21 05:49:18;;;;;;;9.30;2.38;;;;;;;;;;5066916;28;20039;-48
2022/02/21 05:51:44;;;;;;;7.38;1.73;;;;;;;;;;5068130;28;20358;-47
2022/02/21 05:54:10;;;;;;;9.43;2.20;;;;;;;;;;5067900;28;20036;-52
2022/02/21 05:56:36;;;;;;;6.80;1.40;;;;;;;;;;5067904;28;20044;-53
2022/02/21 05:59:03;;;;;;;5.30;1.35;;;;;;;;;;5065590;28;20024;-50
2022/02/21 06:01:30;;;;;;;11.77;2.65;;;;;;;;;;5067584;28;20578;-51
2022/02/21 06:03:56;;;;;;;9.40;1.92;;;;;;;;;;5067143;28;20020;-51
2022/02/21 06:06:22;;;;;;;13.52;3.35;;;;;;;;;;5064782;28;20128;-52
2022/02/21 06:08:48;;;;;;;12.60;2.60;;;;;;;;;;5067592;28;20465;-48
2022/02/21 06:11:14;;;;;;;12.88;2.88;;;;;;;;;;5068159;28;20229;-48
2022/02/21 06:13:40;;;;;;;9.82;2.05;;;;;;;;;;5068050;28;20017;-56
2022/02/21 06:16:06;;;;;;;12.20;2.40;;;;;;;;;;5067876;28;20612;-51
2022/02/21 06:18:32;;;;;;;10.43;2.45;;;;;;;;;;5061260;28;20017;-49
2022/02/21 06:20:59;;;;;;;13.32;2.72;;;;;;;;;;5068680;28;20028;-47
2022/02/21 06:23:25;;;;;;;12.82;2.60;;;;;;;;;;5071594;28;20071;-51
2022/02/21 06:25:51;;;;;;;12.15;2.60;;;;;;;;;;5071854;28;20020;-48
2022/02/21 06:28:17;;;;;;;13.25;2.58;;;;;;;;;;5072051;28;20029;-51
2022/02/21 06:30:43;;;;;;;6.65;1.70;;;;;;;;;;5066765;28;20032;-51
2022/02/21 06:33:09;;;;;;;12.52;1.95;;;;;;;;;;5071548;28;20029;-52
2022/02/21 06:35:35;;;;;;;10.45;2.30;;;;;;;;;;5067151;28;20041;-54
2022/02/21 06:38:04;;;;;;;11.27;2.45;;;;;;;;;;5053275;28;20124;-51
2022/02/21 06:40:30;;;;;;;12.05;1.67;;;;;;;;;;5066155;28;20032;-48
2022/02/21 06:42:57;;;;;;;9.00;1.90;;;;;;;;;;5073271;28;20576;-54
2022/02/21 06:45:24;;;;;;;12.60;2.10;;;;;;;;;;5078367;28;20136;-53
2022/02/21 06:47:50;;;;;;;10.95;1.85;;;;;;;;;;5068439;28;20036;-49
2022/02/21 06:50:17;;;;;;;9.90;1.83;;;;;;;;;;5059492;28;20052;-49
2022/02/21 06:52:44;;;;;;;14.25;3.05;;;;;;;;;;5069067;28;20038;-52
2022/02/21 06:55:12;;;;;;;11.82;2.22;;;;;;;;;;5070080;28;20072;-49
2022/02/21 06:57:39;;;;;;;12.15;2.65;;;;;;;;;;5061877;28;20072;-52
2022/02/21 07:00:05;;;;;;;7.50;1.77;;;;;;;;;;5070962;28;20109;-50
2022/02/21 07:02:31;;;;;;;10.75;1.90;;;;;;;;;;5070861;28;20052;-54
2022/02/21 07:04:59;;;;;;;10.63;2.10;;;;;;;;;;5067700;28;20060;-53
2022/02/21 07:07:25;;;;;;;14.18;2.08;;;;;;;;;;5060531;28;20059;-52
2022/02/21 07:09:51;;;;;;;9.63;2.10;;;;;;;;;;5062313;28;20470;-49
2022/02/21 07:12:18;;;;;;;9.95;1.65;;;;;;;;;;5069872;28;20249;-51
2022/02/21 07:14:46;;;;;;;12.05;3.30;;;;;;;;;;5069996;28;20024;-50
2022/02/21 07:17:12;;;;;;;7.45;1.98;;;;;;;;;;5069071;28;20074;-53
2022/02/21 07:19:39;;;;;;;10.77;1.92;;;;;;;;;;5070586;28;20695;-53
2022/02/21 07:22:05;;;;;;;9.02;2.67;;;;;;;;;;5070048;28;20025;-52
2022/02/21 07:24:31;;;;;;;8.73;1.95;;;;;;;;;;5070371;28;20052;-50
2022/02/21 07:26:57;;;;;;;7.25;1.70;;;;;;;;;;5070212;28;20044;-53
2022/02/21 07:29:24;;;;;;;9.63;2.17;;;;;;;;;;5070134;28;20027;-49
2022/02/21 07:31:53;;;;;;;11.88;1.70;;;;;;;;;;5060737;28;20425;-49
2022/02/21 07:34:19;;;;;;;10.32;2.75;;;;;;;;;;5061030;28;20083;-52
2022/02/21 07:36:45;;;;;;;12.93;2.65;;;;;;;;;;5061093;28;20040;-51
2022/02/21 07:39:12;;;;;;;10.85;2.90;;;;;;;;;;5058677;28;20025;-51
2022/02/21 07:41:41;;;;;;;12.60;2.20;;;;;;;;;;5058932;28;20063;-55
2022/02/21 07:44:07;;;;;;;20.00;4.37;;;;;;;;;;5063479;28;20086;-51
2022/02/21 07:46:34;;;;;;;15.35;3.65;;;;;;;;;;5061536;28;20071;-49
2022/02/21 07:49:00;;;;;;;16.13;4.03;;;;;;;;;;5060971;28;20037;-50
2022/02/21 07:51:26;;;;;;;24.65;5.38;;;;;;;;;;5060554;28;20772;-53
2022/02/21 07:53:52;;;;;;;15.20;4.70;;;;;;;;;;5066149;28;20449;-55
2022/02/21 07:56:18;;;;;;;21.13;5.20;;;;;;;;;;5059439;28;20822;-53
2022/02/21 07:58:44;;;;;;;20.52;6.80;;;;;;;;;;5063196;28;20059;-49
2022/02/21 08:01:10;;;;;;;17.25;5.72;;;;;;;;;;5058198;28;20460;-50
2022/02/21 08:03:37;;;;;;;13.27;4.53;;;;;;;;;;5065479;28;20503;-54
2022/02/21 08:06:07;;;;;;;21.48;4.28;;;;;;;;;;5070335;28;20150;-54
2022/02/21 08:08:33;;;;;;;13.00;4.05;;;;;;;;;;5069776;28;20036;-52
2022/02/21 08:10:59;;;;;;;15.77;4.28;;;;;;;;;;5070034;28;20174;-54
2022/02/21 08:13:25;;;;;;;15.63;3.60;;;;;;;;;;5069868;28;20044;-53
2022/02/21 08:15:52;;;;;;;14.60;4.07;;;;;;;;;;5070215;28;20040;-52
2022/02/21 08:18:18;;;;;;;16.60;3.20;;;;;;;;;;5064544;28;20047;-53
2022/02/21 08:20:44;;;;;;;16.33;3.35;;;;;;;;;;5056653;28;20475;-51
2022/02/21 08:23:10;;;;;;;14.25;4.32;;;;;;;;;;5063224;28;20120;-50
2022/02/21 08:25:36;;;;;;;12.77;3.80;;;;;;;;;;5070182;28;20123;-54
2022/02/21 08:28:02;;;;;;;13.18;3.10;;;;;;;;;;5070105;28;20103;-52
2022/02/21 08:30:28;;;;;;;12.88;2.85;;;;;;;;;;5059212;28;20135;-54
2022/02/21 08:32:55;;;;;;;18.88;4.13;;;;;;;;;;5068237;28;20495;-51
2022/02/21 08:35:21;;;;;;;13.20;3.45;;;;;;;;;;5062970;28;20057;-53
2022/02/21 08:37:47;;;;;;;10.52;3.33;;;;;;;;;;5054496;28;20055;-54
2022/02/21 08:40:14;;;;;;;10.75;3.58;;;;;;;;;;5066999;28;20029;-53
2022/02/21 08:42:41;;;;;;;11.65;2.95;;;;;;;;;;5068689;28;20055;-53
2022/02/21 08:45:08;;;;;;;16.45;4.03;;;;;;;;;;5067758;28;20032;-52
2022/02/21 08:47:34;;;;;;;16.10;3.72;;;;;;;;;;5056164;28;20090;-49
2022/02/21 08:50:00;;;;;;;14.25;3.30;;;;;;;;;;5064961;28;20722;-49
2022/02/21 08:52:26;;;;;;;13.63;3.05;;;;;;;;;;5067352;28;20029;-53
2022/02/21 08:54:52;;;;;;;9.95;2.22;;;;;;;;;;5066488;28;20031;-56
2022/02/21 08:57:18;;;;;;;12.85;3.00;;;;;;;;;;5066851;28;20885;-51
2022/02/21 08:59:44;;;;;;;14.23;2.42;;;;;;;;;;5066631;28;20019;-51
2022/02/21 09:02:11;;;;;;;13.02;2.33;;;;;;;;;;5067736;28;20028;-53
2022/02/21 09:04:37;;;;;;;13.15;2.67;;;;;;;;;;5063346;28;20040;-54
2022/02/21 09:07:03;;;;;;;14.38;3.25;;;;;;;;;;5055247;28;20037;-51
2022/02/21 09:09:30;;;;;;;11.50;3.35;;;;;;;;;;5053147;28;20119;-52
2022/02/21 09:11:56;;;;;;;14.45;3.15;;;;;;;;;;5052257;28;20063;-53
2022/02/21 09:14:22;;;;;;;9.50;2.65;;;;;;;;;;5056538;28;20115;-52
2022/02/21 09:16:48;;;;;;;7.60;3.10;;;;;;;;;;5056963;28;20120;-52
2022/02/21 09:19:14;;;;;;;8.30;2.20;;;;;;;;;;5047679;28;20067;-53
2022/02/21 09:21:40;;;;;;;11.45;3.17;;;;;;;;;;5047875;28;20187;-51
2022/02/21 09:24:06;;;;;;;9.00;2.65;;;;;;;;;;5051429;28;20035;-48
2022/02/21 09:26:32;;;;;;;8.80;2.30;;;;;;;;;;5048700;28;20118;-52
2022/02/21 09:28:59;;;;;;;14.35;4.13;;;;;;;;;;5048236;28;20032;-48
2022/02/21 09:31:25;;;;;;;7.90;2.45;;;;;;;;;;5049707;28;20066;-52
2022/02/21 09:33:51;;;;;;;12.80;2.50;;;;;;;;;;5052638;28;20115;-51
2022/02/21 09:36:17;;;;;;;10.30;2.20;;;;;;;;;;5050226;28;20446;-53
2022/02/21 09:38:43;;;;;;;9.68;2.47;;;;;;;;;;5049865;28;20151;-51
2022/02/21 09:41:09;;;;;;;11.80;2.63;;;;;;;;;;5053362;28;20114;-52
2022/02/21 09:43:35;;;;;;;8.18;2.35;;;;;;;;;;5055904;28;20112;-53
2022/02/21 09:46:03;;;;;;;9.00;2.10;;;;;;;;;;5052061;28;20089;-53
2022/02/21 09:48:29;;;;;;;7.55;2.83;;;;;;;;;;5052310;28;20043;-53
2022/02/21 09:51:00;;;;;;;13.32;2.95;;;;;;;;;;5050834;28;20021;-50
2022/02/21 09:53:29;;;;;;;9.18;2.38;;;;;;;;;;5054581;28;20032;-50
2022/02/21 09:55:58;;;;;;;7.38;1.73;;;;;;;;;;5054931;28;20059;-51
2022/02/21 09:58:24;;;;;;;9.80;3.05;;;;;;;;;;5056105;28;20025;-50
2022/02/21 10:00:52;;;;;;;10.48;2.28;;;;;;;;;;5053496;28;20029;-48
2022/02/21 10:03:37;;;;;;;7.50;2.00;;;;;;;;;;5054759;28;20438;-52
2022/02/21 10:06:17;;;;;;;10.18;2.35;;;;;;;;;;5053910;28;20021;-53
2022/02/21 10:08:55;;;;;;;7.38;2.28;;;;;;;;;;5054295;28;20029;-53
2022/02/21 10:11:32;;;;;;;8.05;1.75;;;;;;;;;;5055897;28;20036;-49
2022/02/21 10:14:02;;;;;;;9.00;2.60;;;;;;;;;;5057514;28;20036;-49
2022/02/21 10:16:28;;;;;;;;;;;;;;;;;;5053542;28;20044;-49
2022/02/21 10:19:08;;;;;;;9.10;2.08;;;;;;;;;;5055598;28;19916;-52
2022/02/21 10:21:46;;;;;;;6.95;1.77;;;;;;;;;;5052780;28;20033;-55
2022/02/21 10:24:12;;;;;;;7.43;1.90;;;;;;;;;;5053925;28;20033;-54
2022/02/21 10:26:41;;;;;;;8.93;2.13;;;;;;;;;;5055717;28;20398;-49
2022/02/21 10:29:07;;;;;;;7.53;1.97;;;;;;;;;;5056801;28;20124;-53
2022/02/21 10:31:33;;;;;;;5.78;2.05;;;;;;;;;;5051863;28;20039;-48
2022/02/21 10:34:00;;;;;;;8.55;2.50;;;;;;;;;;5056180;28;20242;-54
2022/02/21 10:36:30;;;;;;;7.88;2.20;;;;;;;;;;5051960;28;20043;-53
2022/02/21 10:38:56;;;;;;;;;;;;;;;;;;5053261;28;20025;-52
2022/02/21 10:41:22;;;;;;;10.07;2.90;;;;;;;;;;5053729;28;19969;-50
2022/02/21 10:43:49;;;;;;;14.60;4.35;;;;;;;;;;5057700;28;20382;-52
2022/02/21 10:46:15;;;;;;;15.48;4.10;;;;;;;;;;5051322;28;20033;-53
2022/02/21 10:48:42;;;;;;;21.73;5.95;;;;;;;;;;5053591;28;20114;-52
2022/02/21 10:51:08;;;;;;;20.75;6.80;;;;;;;;;;5056485;28;20023;-52
2022/02/21 10:53:45;;;;;;;21.92;6.38;;;;;;;;;;5056134;28;20551;-51
2022/02/21 10:56:12;;;;;;;20.80;6.18;;;;;;;;;;5055954;28;20156;-50
2022/02/21 10:58:39;;;;;;;22.50;6.20;;;;;;;;;;5056169;28;20067;-53
2022/02/21 11:01:07;;;;;;;23.55;6.13;;;;;;;;;;5054611;28;20056;-52
2022/02/21 11:03:33;;;;;;;21.80;5.72;;;;;;;;;;5055837;28;20025;-50
2022/02/21 11:06:01;;;;;;;23.63;7.10;;;;;;;;;;5054450;28;20542;-54
2022/02/21 11:08:28;;;;;;;29.67;7.03;;;;;;;;;;5054335;28;20076;-54
2022/02/21 11:10:58;;;;;;;23.23;6.45;;;;;;;;;;5050428;28;20048;-54
2022/02/21 11:13:24;;;;;;;;;;;;;;;;;;5056701;28;20040;-52
2022/02/21 11:15:52;;;;;;;21.95;5.40;;;;;;;;;;5062164;28;20702;-48
2022/02/21 11:18:19;;;;;;;29.98;6.57;;;;;;;;;;5058459;28;20434;-51
2022/02/21 11:20:45;;;;;;;25.50;6.15;;;;;;;;;;5067579;28;20104;-53
2022/02/21 11:23:12;;;;;;;22.08;5.65;;;;;;;;;;5068899;28;20166;-53
2022/02/21 11:25:58;;;;;;;18.55;5.50;;;;;;;;;;5069054;28;20063;-50
2022/02/21 11:28:26;;;;;;;22.60;5.28;;;;;;;;;;5069081;28;20029;-49
2022/02/21 11:30:53;;;;;;;21.65;5.13;;;;;;;;;;5069260;28;20107;-54
2022/02/21 11:33:20;;;;;;;17.10;5.07;;;;;;;;;;5070095;28;20025;-49
2022/02/21 11:36:03;;;;;;;19.65;5.72;;;;;;;;;;5069265;28;20501;-49
2022/02/21 11:38:29;;;;;;;18.10;5.57;;;;;;;;;;5057499;28;20110;-48
2022/02/21 11:41:00;;;;;;;20.90;6.05;;;;;;;;;;5067832;28;20032;-53
2022/02/21 11:43:26;;;;;;;18.67;5.00;;;;;;;;;;5068474;28;20085;-49
2022/02/21 11:45:55;;;;;;;22.52;4.93;;;;;;;;;;5069090;28;20040;-50
2022/02/21 11:48:22;;;;;;;19.90;4.78;;;;;;;;;;5064018;28;20105;-52
2022/02/21 11:50:48;;;;;;;17.90;4.40;;;;;;;;;;5069854;28;20437;-52
2022/02/21 11:53:24;;;;;;;14.32;4.13;;;;;;;;;;5070352;28;20068;-52
2022/02/21 11:55:52;;;;;;;20.35;4.55;;;;;;;;;;5069802;28;20106;-52
2022/02/21 11:58:23;;;;;;;17.75;4.95;;;;;;;;;;5070157;28;20033;-53
2022/02/21 12:00:52;;;;;;;16.38;4.57;;;;;;;;;;5069704;28;20467;-52
2022/02/21 12:03:18;;;;;;;17.55;4.90;;;;;;;;;;5070052;28;20032;-52
2022/02/21 12:06:05;;;;;;;17.08;4.22;;;;;;;;;;5070759;28;20433;-52
2022/02/21 12:08:31;;;;;;;14.38;4.32;;;;;;;;;;5067604;28;20766;-48
2022/02/21 12:11:03;;;;;;;19.05;4.72;;;;;;;;;;5068506;28;20024;-51
2022/02/21 12:13:33;;;;;;;20.95;4.53;;;;;;;;;;5069817;28;20113;-48
2022/02/21 12:16:03;;;;;;;17.67;5.25;;;;;;;;;;5062546;28;20033;-49
2022/02/21 12:18:29;;;;;;;18.17;4.88;;;;;;;;;;5062627;28;20440;-50
2022/02/21 12:21:09;;;;;;;15.95;4.70;;;;;;;;;;5056106;28;20024;-51
2022/02/21 12:23:39;;;;;;;22.17;4.93;;;;;;;;;;5069562;28;20028;-51
2022/02/21 12:26:05;;;;;;;15.48;5.10;;;;;;;;;;5069172;28;21408;-52
2022/02/21 12:28:32;;;;;;;20.80;4.28;;;;;;;;;;5069678;28;20032;-50
2022/02/21 12:30:58;;;;;;;12.10;4.05;;;;;;;;;;5059449;28;20401;-52
2022/02/21 12:33:29;;;;;;;14.73;3.90;;;;;;;;;;5068838;28;20590;-51
2022/02/21 12:35:59;;;;;;;18.88;4.50;;;;;;;;;;5067951;28;20581;-47
2022/02/21 12:38:27;;;;;;;14.90;3.83;;;;;;;;;;5068708;28;20084;-50
2022/02/21 12:40:59;;;;;;;14.90;4.47;;;;;;;;;;5068980;28;20086;-52
2022/02/21 12:43:43;;;;;;;18.35;4.18;;;;;;;;;;5068943;28;20088;-49
2022/02/21 12:46:09;;;;;;;17.83;5.40;;;;;;;;;;5069503;28;20111;-50
2022/02/21 12:48:38;;;;;;;14.63;4.53;;;;;;;;;;5069169;28;20031;-50
2022/02/21 12:51:05;;;;;;;15.50;4.25;;;;;;;;;;5069828;28;20072;-48
2022/02/21 12:53:32;;;;;;;15.27;4.75;;;;;;;;;;5068832;28;20143;-53
2022/02/21 12:56:02;;;;;;;14.18;4.40;;;;;;;;;;5069339;28;20111;-52
2022/02/21 12:58:38;;;;;;;15.63;3.75;;;;;;;;;;5068988;28;20028;-47
2022/02/21 13:01:18;;;;;;;16.63;4.68;;;;;;;;;;5063250;28;20093;-53
2022/02/21 13:03:50;;;;;;;14.90;4.20;;;;;;;;;;5067703;28;20028;-55
2022/02/21 13:06:16;;;;;;;16.67;4.57;;;;;;;;;;5067971;28;20524;-51
2022/02/21 13:08:42;;;;;;;14.25;4.40;;;;;;;;;;5068710;28;20078;-50
2022/02/21 13:11:07;;;;;;;14.43;3.97;;;;;;;;;;5059717;28;20491;-50
2022/02/21 13:13:46;;;;;;;15.35;4.45;;;;;;;;;;5061326;28;20083;-52
2022/02/21 13:16:12;;;;;;;14.10;3.75;;;;;;;;;;5059173;28;20544;-55
2022/02/21 13:18:48;;;;;;;17.23;4.15;;;;;;;;;;5060125;28;20017;-54
2022/02/21 13:21:25;;;;;;;15.23;3.83;;;;;;;;;;5056782;28;20017;-51
2022/02/21 13:23:51;;;;;;;15.15;3.83;;;;;;;;;;5064706;28;20104;-50
2022/02/21 13:26:17;;;;;;;18.65;4.05;;;;;;;;;;5068032;28;20051;-48
2022/02/21 13:28:43;;;;;;;12.02;3.30;;;;;;;;;;5068794;28;20435;-52
2022/02/21 13:31:09;;;;;;;15.80;3.75;;;;;;;;;;5068664;28;20029;-53
2022/02/21 13:33:39;;;;;;;12.68;4.30;;;;;;;;;;5068431;28;20066;-49
2022/02/21 13:36:06;;;;;;;;;;;;;;;;;;5068579;28;20083;-49
2022/02/21 13:38:33;;;;;;;13.10;3.15;;;;;;;;;;5068124;28;19946;-53
2022/02/21 13:41:01;;;;;;;12.02;4.13;;;;;;;;;;5069029;28;20033;-50
2022/02/21 13:43:28;;;;;;;11.82;3.88;;;;;;;;;;5068271;28;20063;-51
2022/02/21 13:45:54;;;;;;;7.45;2.85;;;;;;;;;;5068458;28;20028;-52
2022/02/21 13:48:24;;;;;;;12.45;3.53;;;;;;;;;;5067781;28;20537;-52
2022/02/21 13:50:51;;;;;;;13.70;4.63;;;;;;;;;;5069111;28;20029;-51
2022/02/21 13:53:38;;;;;;;16.50;3.05;;;;;;;;;;5068581;28;20032;-53
2022/02/21 13:56:05;;;;;;;15.35;3.50;;;;;;;;;;5055720;28;20037;-48
2022/02/21 13:58:32;;;;;;;13.10;3.42;;;;;;;;;;5064512;28;20036;-54
2022/02/21 14:01:16;;;;;;;12.00;2.90;;;;;;;;;;5063565;28;20021;-52
2022/02/21 14:03:45;;;;;;;10.60;3.83;;;;;;;;;;5067598;28;20028;-54
2022/02/21 14:06:12;;;;;;;10.82;3.28;;;;;;;;;;5060584;28;20485;-52
2022/02/21 14:08:43;;;;;;;9.35;3.17;;;;;;;;;;5068018;28;20085;-52
2022/02/21 14:11:10;;;;;;;12.35;3.45;;;;;;;;;;5068287;28;20036;-52
2022/02/21 14:13:37;;;;;;;9.55;3.13;;;;;;;;;;5068553;28;20085;-53
2022/02/21 14:16:03;;;;;;;13.20;3.22;;;;;;;;;;5068117;28;20024;-50
2022/02/21 14:18:30;;;;;;;10.10;3.05;;;;;;;;;;5068094;28;20052;-54
2022/02/21 14:20:56;;;;;;;9.43;2.97;;;;;;;;;;5067738;28;20482;-51
2022/02/21 14:23:22;;;;;;;8.43;2.50;;;;;;;;;;5068146;28;20147;-52
2022/02/21 14:25:49;;;;;;;10.75;2.63;;;;;;;;;;5068285;28;20032;-47
2022/02/21 14:28:16;;;;;;;9.40;2.38;;;;;;;;;;5067834;28;20036;-53
2022/02/21 14:30:42;;;;;;;9.23;2.67;;;;;;;;;;5067461;28;20131;-50
2022/02/21 14:33:08;;;;;;;11.93;3.28;;;;;;;;;;5067897;28;20621;-52
2022/02/21 14:35:37;;;;;;;11.90;3.60;;;;;;;;;;5067546;28;20060;-52
2022/02/21 14:38:03;;;;;;;12.23;3.17;;;;;;;;;;5068077;28;20056;-51